Leoma, TN (38468)

06:06 PM CDT die 24o October, anno 2014 (GMT -0500)
WLX Radio Studios | Change Station
CLOSE
Current Station
Personal Weather Stations
Location: Lawrenceburg, TN
Elevation: 932 ft
Nearby Weather Stations

Elev 932 ft 35.25 °N, 87.33 °W | Updated 13 minutes ago

Serena
Serena
66.9 °F
Feels Like 66.9 °F
N
2.0
Ventus Variabilis Ventus from Magis Zephyrus quam Aquilo
Gusts 6.0 mph

Hodie
High -- | Low -- °F
--% Chance of Precip.
Yesterday
High -- | Low -- °F
Precip. -- in
7:03 AM 6:03 PM
New, 1% visible
Pressio 30.06 in
Visibilitas 10.0 milia passuum
Clouds Serena
Frigus in quo Ros apparet 50 °F
Umor 54%
Rainfall 0.00 in
Snow Depth Not available.
UV 0 out of 12
Pollen 1.70 out of 12
Air Quality Not available.
Flu Activity Sporadic
METAR KMRC 242255Z AUTO 00000KT 10SM CLR 19/09 A3006 RMK

More Conditions Fewer Conditions

Pressio 30.06 in
Visibilitas 10.0 milia passuum
Clouds Serena
Frigus in quo Ros apparet 50 °F
Umor 54%
Rainfall 0.00 in
Snow Depth Not available.
UV 0 out of 12
Pollen 1.70 out of 12
Air Quality Not available.
Flu Activity Sporadic
METAR KMRC 242255Z AUTO 00000KT 10SM CLR 19/09 A3006 RMK

More Conditions Fewer Conditions

10-Day Weather Forecast

Almanac

Astronomy

Oct. 24, 2014 Rise Set
Actual Time 7:03 AM CDT 6:03 PM CDT
Civil Twilight 6:37 AM CDT 6:29 PM CDT
Nautical Twilight 6:07 AM CDT 6:58 PM CDT
Astronomical Twilight 5:38 AM CDT 7:28 PM CDT
Moon 7:40 AM CDT 6:44 PM CDT
Length Of Visible Light 11h 51m
Length of Day
10h 59m
Tomorrow will be 2m 3s shorter.
New, 1% of the Moon is Illuminated
Hodie
New
Oct 30
First Quarter
Nov 6
Full
Nov 14
Last Quarter
Nov 22
New

Today's Extremes

State Highs State Lows

Community

WunderPhotos

Upload Photos

1,764,705 photos uploaded!

Nearby

Snow Depth

Station Depth Elevation
No new snow has been reported.

Earthquake Activity

City Distance Mag. Time & Date
No recent earthquake activity has been reported nearby.
Minimum magnitude displayed is 2.5.

Coastal Water Temperatures

Locus Calor
No Stations Reporting

Nearby Weather Stations